createdAt,value
2023-03-12T00:00:49.586Z,6.33
2023-03-12T00:03:16.627Z,4.63
2023-03-12T00:05:44.747Z,6.10
2023-03-12T00:08:12.014Z,4.60
2023-03-12T00:10:40.252Z,3.47
2023-03-12T00:13:08.368Z,3.30
2023-03-12T00:15:39.576Z,4.10
2023-03-12T00:18:06.564Z,2.70
2023-03-12T00:20:33.642Z,3.20
2023-03-12T00:23:00.710Z,3.40
2023-03-12T00:25:27.772Z,2.40
2023-03-12T00:27:54.710Z,2.93
2023-03-12T00:30:21.876Z,3.57
2023-03-12T00:32:48.796Z,5.07
2023-03-12T00:35:15.719Z,5.07
2023-03-12T00:37:42.602Z,6.57
2023-03-12T00:40:11.312Z,5.37
2023-03-12T00:42:38.258Z,5.80
2023-03-12T00:45:05.587Z,6.07
2023-03-12T00:47:32.443Z,7.43
2023-03-12T00:49:59.404Z,5.23
2023-03-12T00:52:26.331Z,6.20
2023-03-12T00:54:53.189Z,5.50
2023-03-12T00:57:20.041Z,6.00
2023-03-12T00:59:47.030Z,3.80
2023-03-12T01:02:13.955Z,4.53
2023-03-12T01:04:40.917Z,4.67
2023-03-12T01:07:07.855Z,5.27
2023-03-12T01:09:34.718Z,4.93
2023-03-12T01:12:01.569Z,4.63
2023-03-12T01:14:28.483Z,4.57
2023-03-12T01:16:55.384Z,5.27
2023-03-12T01:19:22.289Z,4.97
2023-03-12T01:21:49.137Z,4.37
2023-03-12T01:24:16.112Z,4.37
2023-03-12T01:26:43.100Z,5.57
2023-03-12T01:29:10.103Z,4.23
2023-03-12T01:31:37.352Z,4.33
2023-03-12T01:34:04.375Z,5.70
2023-03-12T01:36:31.492Z,6.03
2023-03-12T01:38:59.846Z,6.60
2023-03-12T01:41:29.379Z,5.23
2023-03-12T01:43:56.482Z,6.93
2023-03-12T01:46:34.000Z,5.83
2023-03-12T01:49:25.142Z,6.77
2023-03-12T01:52:04.696Z,5.30
2023-03-12T01:55:13.658Z,6.30
2023-03-12T01:57:53.552Z,5.60
2023-03-12T02:00:24.186Z,5.77
2023-03-12T02:02:53.791Z,6.60
2023-03-12T02:05:28.918Z,6.23
2023-03-12T02:07:57.210Z,4.20
2023-03-12T02:10:25.713Z,4.47
2023-03-12T02:12:53.226Z,5.50
2023-03-12T02:15:20.267Z,4.67
2023-03-12T02:17:47.311Z,4.43
2023-03-12T02:20:23.585Z,4.93
2023-03-12T02:22:59.824Z,5.40
2023-03-12T02:25:40.624Z,4.60
2023-03-12T02:28:10.547Z,3.83
2023-03-12T02:30:40.425Z,4.70
2023-03-12T02:33:08.857Z,4.67
2023-03-12T02:35:36.576Z,4.93
2023-03-12T02:38:04.249Z,3.43
2023-03-12T02:40:37.887Z,3.73
2023-03-12T02:43:07.540Z,2.70
2023-03-12T02:45:36.967Z,3.20
2023-03-12T02:48:08.008Z,3.10
2023-03-12T02:50:34.914Z,4.50
2023-03-12T02:53:01.739Z,5.27
2023-03-12T02:55:28.637Z,5.50
2023-03-12T02:57:57.965Z,3.20
2023-03-12T03:00:25.220Z,3.20
2023-03-12T03:02:52.092Z,4.20
2023-03-12T03:05:20.434Z,4.10
2023-03-12T03:07:47.351Z,3.70
2023-03-12T03:10:15.497Z,2.37
2023-03-12T03:12:42.386Z,2.30
2023-03-12T03:15:09.992Z,3.70
2023-03-12T03:17:37.354Z,3.43
2023-03-12T03:20:11.235Z,3.53
2023-03-12T03:22:39.004Z,4.50
2023-03-12T03:25:07.723Z,3.10
2023-03-12T03:27:34.662Z,3.73
2023-03-12T03:30:01.570Z,3.13
2023-03-12T03:32:28.721Z,3.70
2023-03-12T03:34:55.744Z,2.90
2023-03-12T03:37:22.616Z,2.33
2023-03-12T03:39:49.448Z,2.83
2023-03-12T04:47:04.926Z,2.97
2023-03-12T04:49:31.993Z,3.20
2023-03-12T04:51:58.873Z,4.87
2023-03-12T04:54:26.122Z,1.70
2023-03-12T04:57:05.350Z,2.20
2023-03-12T04:59:32.228Z,2.07
2023-03-12T05:01:59.172Z,1.97
2023-03-12T05:04:33.701Z,2.60
2023-03-12T05:07:00.982Z,2.80
2023-03-12T05:09:27.916Z,2.83
2023-03-12T05:11:55.026Z,2.43
2023-03-12T05:14:33.960Z,3.00
2023-03-12T05:17:00.875Z,2.37
2023-03-12T05:19:27.840Z,3.90
2023-03-12T05:21:54.689Z,3.17
2023-03-12T05:24:22.460Z,3.97
2023-03-12T05:26:49.298Z,2.73
2023-03-12T05:29:16.181Z,3.80
2023-03-12T05:31:43.175Z,3.40
2023-03-12T05:34:12.740Z,3.17
2023-03-12T05:36:39.827Z,4.77
2023-03-12T05:39:06.702Z,3.80
2023-03-12T05:41:33.603Z,2.43
2023-03-12T05:44:13.583Z,2.80
2023-03-12T05:46:43.950Z,3.30
2023-03-12T05:49:11.272Z,3.23
2023-03-12T05:51:38.240Z,2.63
2023-03-12T05:54:05.132Z,2.97
2023-03-12T05:56:41.174Z,3.67
2023-03-12T05:59:10.380Z,2.77
2023-03-12T06:01:48.355Z,4.40
2023-03-12T06:04:15.245Z,4.40
2023-03-12T06:06:42.232Z,4.00
2023-03-12T06:09:09.105Z,3.97
2023-03-12T06:11:48.263Z,4.40
2023-03-12T06:14:15.111Z,3.33
2023-03-12T06:16:42.238Z,3.30
2023-03-12T06:19:18.948Z,3.93
2023-03-12T06:21:45.849Z,4.80
2023-03-12T06:24:18.792Z,4.50
2023-03-12T06:26:45.799Z,3.70
2023-03-12T06:29:12.926Z,4.30
2023-03-12T06:31:42.062Z,3.20
2023-03-12T06:34:10.322Z,4.07
2023-03-12T06:36:37.778Z,3.70
2023-03-12T06:39:08.661Z,3.73
2023-03-12T06:41:36.403Z,4.17
2023-03-12T06:44:06.544Z,3.17
2023-03-12T06:46:33.855Z,3.97
2023-03-12T06:49:00.784Z,3.93
2023-03-12T06:51:27.822Z,3.40
2023-03-12T06:53:54.824Z,3.53
2023-03-12T06:56:21.757Z,3.50
2023-03-12T06:58:48.913Z,6.40
2023-03-12T07:01:15.940Z,7.23
2023-03-12T07:03:42.797Z,4.23
2023-03-12T07:06:14.808Z,5.60
2023-03-12T07:08:41.830Z,5.13
2023-03-12T07:11:09.291Z,4.67
2023-03-12T07:13:36.275Z,3.93
2023-03-12T07:16:03.700Z,5.00
2023-03-12T07:18:30.565Z,4.03
2023-03-12T07:20:57.532Z,4.03
2023-03-12T07:23:24.659Z,3.23
2023-03-12T07:25:51.778Z,5.23
2023-03-12T07:28:19.765Z,4.20
2023-03-12T07:30:52.890Z,3.97
2023-03-12T07:33:21.856Z,4.23
2023-03-12T07:35:51.476Z,5.57
2023-03-12T07:38:19.104Z,4.33
2023-03-12T07:40:54.285Z,3.90
2023-03-12T07:43:22.041Z,3.83
2023-03-12T07:45:49.692Z,4.80
2023-03-12T07:48:17.210Z,6.20
2023-03-12T07:50:44.459Z,4.93
2023-03-12T07:53:29.830Z,5.97
2023-03-12T07:55:56.750Z,6.10
2023-03-12T07:58:23.765Z,4.10
2023-03-12T08:00:50.843Z,3.57
2023-03-12T08:03:18.102Z,3.77
2023-03-12T08:05:45.593Z,3.00
2023-03-12T08:08:12.691Z,2.60
2023-03-12T08:10:39.678Z,4.23
2023-03-12T08:13:06.561Z,7.30
2023-03-12T08:15:33.545Z,8.83
2023-03-12T08:18:01.420Z,10.40
2023-03-12T08:20:28.450Z,7.60
2023-03-12T08:22:55.425Z,7.80
2023-03-12T08:25:24.630Z,3.10
2023-03-12T08:27:51.589Z,3.90
2023-03-12T08:30:18.524Z,2.93
2023-03-12T08:32:45.412Z,4.20
2023-03-12T08:35:12.437Z,2.87
2023-03-12T08:37:39.352Z,2.20
2023-03-12T08:40:13.334Z,2.43
2023-03-12T08:42:42.030Z,3.43
2023-03-12T08:45:10.262Z,3.23
2023-03-12T08:47:39.747Z,3.13
2023-03-12T08:50:07.314Z,4.43
2023-03-12T08:52:34.178Z,3.13
2023-03-12T08:55:01.043Z,2.80
2023-03-12T08:57:28.907Z,4.30
2023-03-12T08:59:56.364Z,4.37
2023-03-12T09:02:23.523Z,16.70
2023-03-12T09:04:50.617Z,16.40
2023-03-12T09:07:18.557Z,8.60
2023-03-12T09:09:45.466Z,12.73
2023-03-12T09:12:12.558Z,17.00
2023-03-12T09:15:02.422Z,15.23
2023-03-12T09:17:29.445Z,6.10
2023-03-12T09:19:56.368Z,8.70
2023-03-12T09:22:23.218Z,7.77
2023-03-12T09:24:50.262Z,8.27
2023-03-12T09:27:17.205Z,4.80
2023-03-12T09:29:57.277Z,6.63
2023-03-12T09:32:27.497Z,7.93
2023-03-12T09:34:54.608Z,8.10
2023-03-12T09:37:23.903Z,9.23
2023-03-12T09:39:52.313Z,7.63
2023-03-12T09:42:27.535Z,5.33
2023-03-12T09:44:57.144Z,8.27
2023-03-12T09:47:31.689Z,9.60
2023-03-12T09:50:28.659Z,11.10
2023-03-12T09:53:09.361Z,8.50
2023-03-12T09:55:40.281Z,7.37
2023-03-12T09:58:14.121Z,20.13
2023-03-12T10:00:41.041Z,8.00
2023-03-12T10:03:10.618Z,8.50
2023-03-12T10:05:58.682Z,10.20
2023-03-12T10:08:54.365Z,10.17
2023-03-12T10:11:42.762Z,7.80
2023-03-12T10:14:23.491Z,12.30
2023-03-12T10:17:17.204Z,9.70
2023-03-12T10:19:55.828Z,11.13
2023-03-12T10:22:25.541Z,9.17
2023-03-12T10:25:16.594Z,9.27
2023-03-12T10:27:43.760Z,10.00
2023-03-12T10:30:26.795Z,10.30
2023-03-12T10:33:01.188Z,11.40
2023-03-12T10:35:30.529Z,10.73
2023-03-12T10:38:00.493Z,10.03
2023-03-12T10:40:34.195Z,8.83
2023-03-12T10:43:02.824Z,7.43
2023-03-12T10:45:50.003Z,6.80
2023-03-12T10:48:26.321Z,6.90
2023-03-12T10:51:05.509Z,6.43
2023-03-12T10:53:38.263Z,5.63
2023-03-12T10:56:11.030Z,10.17
2023-03-12T10:58:41.249Z,6.90
2023-03-12T11:01:29.937Z,5.07
2023-03-12T11:04:30.081Z,6.97
2023-03-12T11:07:12.753Z,6.40
2023-03-12T11:09:39.712Z,5.63
2023-03-12T11:12:51.450Z,7.63
2023-03-12T11:15:41.779Z,5.50
2023-03-12T11:18:21.326Z,5.40
2023-03-12T11:20:56.584Z,4.80
2023-03-12T11:23:31.366Z,6.40
2023-03-12T11:26:04.382Z,6.47
2023-03-12T11:28:38.509Z,6.27
2023-03-12T11:31:11.184Z,4.10
2023-03-12T11:33:38.188Z,5.03
2023-03-12T11:36:41.244Z,7.20
2023-03-12T11:39:30.086Z,6.40
2023-03-12T11:42:32.852Z,5.50
2023-03-12T11:45:24.208Z,6.97
2023-03-12T11:48:10.650Z,5.43
2023-03-12T11:50:57.409Z,3.50
2023-03-12T11:53:24.226Z,6.03
2023-03-12T11:56:28.962Z,5.87
2023-03-12T11:59:14.783Z,12.20
2023-03-12T12:02:16.951Z,13.53
2023-03-12T12:05:08.683Z,13.10
2023-03-12T12:07:55.833Z,14.83
2023-03-12T12:10:28.586Z,14.43
2023-03-12T12:13:08.227Z,4.90
2023-03-12T12:15:55.041Z,5.53
2023-03-12T12:18:40.448Z,5.77
2023-03-12T12:21:25.572Z,5.27
2023-03-12T12:24:08.193Z,4.93
2023-03-12T12:26:47.176Z,6.20
2023-03-12T12:29:19.817Z,4.60
2023-03-12T12:31:55.471Z,3.67
2023-03-12T12:35:06.926Z,6.33
2023-03-12T12:37:42.891Z,6.50
2023-03-12T12:40:39.047Z,5.20
2023-03-12T12:43:28.435Z,10.53
2023-03-12T12:45:59.746Z,12.40
2023-03-12T12:48:35.682Z,11.10
2023-03-12T12:51:06.465Z,10.40
2023-03-12T12:54:12.788Z,5.00
2023-03-12T12:57:03.574Z,4.90
2023-03-12T12:59:50.624Z,5.67
2023-03-12T13:02:22.868Z,7.63
2023-03-12T13:04:50.202Z,18.97
2023-03-12T13:07:21.372Z,5.30
2023-03-12T13:09:53.757Z,5.00
2023-03-12T13:12:42.378Z,5.07
2023-03-12T13:15:27.888Z,4.73
2023-03-12T13:18:20.759Z,5.77
2023-03-12T13:21:27.525Z,4.67
2023-03-12T13:24:22.169Z,4.63
2023-03-12T13:27:12.583Z,3.60
2023-03-12T13:29:42.536Z,5.10
2023-03-12T13:32:29.159Z,3.30
2023-03-12T13:34:59.389Z,4.00
2023-03-12T13:37:51.335Z,3.67
2023-03-12T13:40:30.502Z,4.10
2023-03-12T13:43:12.427Z,4.77
2023-03-12T13:45:51.227Z,3.57
2023-03-12T13:48:20.854Z,4.10
2023-03-12T13:50:57.096Z,3.43
2023-03-12T13:53:27.853Z,5.00
2023-03-12T13:56:05.376Z,4.70
2023-03-12T13:58:40.502Z,4.63
2023-03-12T14:01:20.672Z,7.53
2023-03-12T14:03:55.516Z,4.40
2023-03-12T14:06:25.783Z,4.80
2023-03-12T14:09:24.479Z,4.37
2023-03-12T14:12:12.015Z,5.33
2023-03-12T14:15:16.409Z,5.00
2023-03-12T14:17:44.581Z,4.27
2023-03-12T14:20:20.823Z,4.30
2023-03-12T14:23:00.194Z,4.43
2023-03-12T14:25:36.192Z,5.90
2023-03-12T14:28:10.859Z,7.07
2023-03-12T14:31:03.292Z,11.50
2023-03-12T14:34:14.969Z,6.53
2023-03-12T14:36:49.064Z,3.60
2023-03-12T14:39:34.067Z,7.93
2023-03-12T14:42:06.446Z,8.63
2023-03-12T14:44:36.810Z,7.17
2023-03-12T14:47:03.694Z,8.20
2023-03-12T14:49:31.866Z,10.43
2023-03-12T14:51:58.825Z,3.60
2023-03-12T14:54:28.260Z,6.13
2023-03-12T14:56:55.245Z,3.53
2023-03-12T14:59:33.590Z,4.33
2023-03-12T15:02:17.920Z,6.47
2023-03-12T15:04:46.175Z,6.80
2023-03-12T15:07:17.152Z,9.50
2023-03-12T15:09:49.969Z,8.10
2023-03-12T15:12:26.402Z,5.30
2023-03-12T15:15:08.995Z,7.20
2023-03-12T15:17:36.305Z,7.07
2023-03-12T15:20:09.330Z,7.43
2023-03-12T15:22:37.332Z,6.67
2023-03-12T15:25:23.557Z,5.90
2023-03-12T15:28:10.120Z,5.33
2023-03-12T15:30:38.930Z,5.10
2023-03-12T15:33:06.962Z,5.40
2023-03-12T15:35:35.135Z,4.90
2023-03-12T15:38:03.214Z,4.87
2023-03-12T15:40:31.445Z,4.70
2023-03-12T15:43:03.140Z,7.73
2023-03-12T15:45:37.527Z,7.73
2023-03-12T15:48:33.162Z,5.47
2023-03-12T15:51:00.520Z,8.90
2023-03-12T15:53:31.521Z,8.53
2023-03-12T15:56:05.228Z,7.93
2023-03-12T15:58:35.163Z,6.30
2023-03-12T16:01:14.339Z,7.30
2023-03-12T16:03:45.401Z,5.00
2023-03-12T16:06:17.984Z,4.13
2023-03-12T16:08:48.880Z,5.77
2023-03-12T16:11:19.343Z,6.03
2023-03-12T16:13:48.588Z,5.00
2023-03-12T16:16:15.795Z,9.20
2023-03-12T16:18:44.131Z,5.67
2023-03-12T16:21:11.456Z,6.93
2023-03-12T16:23:38.372Z,16.53
2023-03-12T16:26:06.258Z,7.63
2023-03-12T16:28:36.088Z,4.77
2023-03-12T16:31:03.456Z,4.10
2023-03-12T16:33:30.392Z,6.33
2023-03-12T16:35:57.858Z,6.20
2023-03-12T16:38:24.837Z,7.50
2023-03-12T16:40:52.686Z,5.30
2023-03-12T16:43:25.223Z,4.00
2023-03-12T16:45:53.178Z,3.23
2023-03-12T16:48:24.416Z,3.33
2023-03-12T16:50:54.460Z,3.37
2023-03-12T16:53:22.128Z,3.30
2023-03-12T16:56:01.801Z,7.13
2023-03-12T16:58:30.210Z,5.13
2023-03-12T17:00:57.903Z,3.23
2023-03-12T17:03:32.386Z,3.60
2023-03-12T17:06:00.309Z,4.53
2023-03-12T17:08:27.932Z,5.70
2023-03-12T17:10:56.498Z,4.67
2023-03-12T17:13:28.503Z,4.63
2023-03-12T17:15:56.699Z,5.20
2023-03-12T17:18:24.174Z,5.47
2023-03-12T17:20:51.827Z,4.57
2023-03-12T17:23:19.190Z,4.60
2023-03-12T17:25:46.809Z,4.53
2023-03-12T17:28:15.326Z,4.07
2023-03-12T17:30:42.569Z,6.23
2023-03-12T17:33:13.912Z,5.00
2023-03-12T17:35:42.013Z,3.00
2023-03-12T17:38:09.530Z,4.43
2023-03-12T17:40:40.810Z,4.60
2023-03-12T17:43:07.695Z,3.57
2023-03-12T17:45:36.922Z,4.03
2023-03-12T17:48:04.412Z,5.37
2023-03-12T17:50:31.575Z,4.67
2023-03-12T17:52:58.432Z,4.50
2023-03-12T17:55:25.448Z,3.60
2023-03-12T17:57:52.438Z,3.90
2023-03-12T18:00:21.950Z,2.43
2023-03-12T18:02:49.719Z,5.63
2023-03-12T18:05:16.682Z,3.70
2023-03-12T18:07:43.800Z,4.67
2023-03-12T18:10:11.547Z,3.60
2023-03-12T18:12:40.298Z,4.37
2023-03-12T18:15:10.874Z,4.90
2023-03-12T18:17:37.996Z,6.43
2023-03-12T18:20:09.699Z,4.93
2023-03-12T18:22:38.875Z,5.87
2023-03-12T18:25:07.318Z,4.70
2023-03-12T18:27:34.450Z,5.17
2023-03-12T18:30:01.352Z,5.00
2023-03-12T18:32:28.283Z,3.93
2023-03-12T18:34:55.293Z,3.23
2023-03-12T18:37:22.941Z,3.20
2023-03-12T18:39:49.941Z,3.63
2023-03-12T18:42:17.296Z,3.93
2023-03-12T18:44:44.208Z,3.70
2023-03-12T18:47:11.157Z,3.87
2023-03-12T18:49:38.218Z,5.30
2023-03-12T18:52:05.384Z,3.43
2023-03-12T18:54:33.660Z,3.23
2023-03-12T18:57:00.953Z,3.50
2023-03-12T18:59:29.526Z,5.07
2023-03-12T19:01:57.421Z,4.10
2023-03-12T19:04:25.767Z,6.00
2023-03-12T19:06:52.801Z,6.50
2023-03-12T19:09:19.926Z,4.90
2023-03-12T19:11:47.958Z,3.77
2023-03-12T19:14:15.212Z,4.30
2023-03-12T19:16:42.431Z,3.80
2023-03-12T19:19:09.323Z,4.00
2023-03-12T19:21:36.284Z,4.70
2023-03-12T19:24:03.598Z,3.93
2023-03-12T19:26:30.470Z,4.37
2023-03-12T19:28:57.349Z,3.53
2023-03-12T19:31:25.293Z,3.93
2023-03-12T19:33:52.277Z,3.80
2023-03-12T19:36:19.156Z,4.37
2023-03-12T19:38:46.558Z,3.70
2023-03-12T19:41:13.491Z,4.43
2023-03-12T19:43:41.025Z,4.20
2023-03-12T19:46:08.133Z,4.43
2023-03-12T19:48:35.107Z,6.10
2023-03-12T19:51:09.997Z,4.80
2023-03-12T19:53:37.362Z,6.23
2023-03-12T19:56:04.989Z,4.23
2023-03-12T19:58:31.926Z,4.07
2023-03-12T20:01:02.851Z,3.63
2023-03-12T20:03:32.602Z,5.03
2023-03-12T20:05:59.971Z,6.30
2023-03-12T20:08:33.298Z,4.00
2023-03-12T20:11:09.538Z,4.10
2023-03-12T20:13:39.845Z,3.03
2023-03-12T20:16:07.649Z,2.80
2023-03-12T20:18:34.912Z,3.30
2023-03-12T20:21:02.122Z,4.40
2023-03-12T20:23:29.013Z,5.03
2023-03-12T20:25:55.893Z,4.00
2023-03-12T20:28:22.779Z,5.57
2023-03-12T20:30:49.665Z,7.50
2023-03-12T20:33:16.693Z,1.50
2023-03-12T20:35:43.785Z,5.00
2023-03-12T20:38:10.766Z,5.67
2023-03-12T20:40:38.011Z,5.93
2023-03-12T20:43:05.282Z,7.80
2023-03-12T20:45:34.100Z,7.60
2023-03-12T20:48:01.302Z,6.67
2023-03-12T20:50:28.884Z,10.70
2023-03-12T20:52:55.767Z,7.63
2023-03-12T20:55:22.694Z,6.33
2023-03-12T20:57:49.533Z,7.37
2023-03-12T21:00:17.017Z,6.40
2023-03-12T21:02:43.913Z,4.83
2023-03-12T21:05:11.497Z,7.03
2023-03-12T21:07:38.530Z,4.27
2023-03-12T21:10:06.172Z,3.37
2023-03-12T21:12:33.280Z,7.37
2023-03-12T21:15:06.166Z,4.63
2023-03-12T21:17:37.994Z,2.90
2023-03-12T21:20:10.915Z,5.70
2023-03-12T21:22:38.629Z,4.10
2023-03-12T21:25:06.855Z,3.40
2023-03-12T21:27:48.066Z,2.53
2023-03-12T21:30:17.213Z,3.90
2023-03-12T21:32:44.217Z,4.83
2023-03-12T21:35:11.313Z,4.97
2023-03-12T21:37:38.247Z,4.60
2023-03-12T21:40:05.548Z,3.27
2023-03-12T21:42:33.405Z,4.30
2023-03-12T21:45:00.350Z,4.00
2023-03-12T21:47:27.298Z,5.20
2023-03-12T21:49:54.130Z,4.00
2023-03-12T21:52:21.011Z,4.53
2023-03-12T21:54:47.874Z,12.37
2023-03-12T21:57:14.748Z,3.20
2023-03-12T21:59:41.631Z,2.40
2023-03-12T22:02:12.681Z,3.37
2023-03-12T22:04:39.783Z,3.13
2023-03-12T22:07:06.904Z,3.17
2023-03-12T22:09:33.744Z,4.80
2023-03-12T22:12:01.421Z,4.70
2023-03-12T22:14:28.607Z,5.67
2023-03-12T22:16:55.460Z,5.13
2023-03-12T22:19:22.318Z,4.97
2023-03-12T22:21:49.181Z,3.33
2023-03-12T22:24:16.066Z,3.00
2023-03-12T22:26:42.975Z,2.93
2023-03-12T22:29:09.997Z,3.87
2023-03-12T22:31:37.043Z,6.63
2023-03-12T22:34:03.938Z,3.23
2023-03-12T22:36:30.784Z,3.03
2023-03-12T22:38:57.735Z,3.63
2023-03-12T22:41:29.179Z,3.50
2023-03-12T22:44:01.069Z,2.73
2023-03-12T22:46:28.888Z,4.63
2023-03-12T22:48:57.893Z,2.60
2023-03-12T22:51:25.868Z,4.37
2023-03-12T22:53:52.992Z,3.17
2023-03-12T22:56:19.865Z,3.50
2023-03-12T22:58:47.532Z,3.27
2023-03-12T23:01:16.845Z,3.87
2023-03-12T23:03:45.830Z,4.50
2023-03-12T23:06:18.838Z,3.43
2023-03-12T23:08:47.707Z,4.30
2023-03-12T23:11:15.733Z,5.37
2023-03-12T23:13:44.594Z,5.20
2023-03-12T23:16:14.739Z,5.20
2023-03-12T23:18:42.876Z,9.03
2023-03-12T23:21:12.368Z,9.50
2023-03-12T23:23:43.501Z,5.77
2023-03-12T23:26:18.874Z,2.33
2023-03-12T23:28:47.256Z,3.47
2023-03-12T23:31:15.607Z,1.70
2023-03-12T23:33:43.344Z,2.47
2023-03-12T23:36:16.271Z,3.40
2023-03-12T23:38:43.763Z,5.00
2023-03-12T23:41:22.637Z,4.43
2023-03-12T23:43:50.420Z,3.07
2023-03-12T23:46:18.234Z,3.13
2023-03-12T23:48:45.756Z,5.40
2023-03-12T23:51:21.025Z,4.50
2023-03-12T23:53:49.973Z,7.37
2023-03-12T23:56:19.978Z,4.70
2023-03-12T23:58:48.051Z,3.60
